Time;durP1;ratioP1;P1;durP2;ratioP2;P2;SDS_P1;SDS_P2;PMS_P1;PMS_P2;Temp;Humidity;BMP_temperature;BMP_pressure;BME280_temperature;BME280_humidity;BME280_pressure;Samples;Min_cycle;Max_cycle;Signal;HPM_P1;HPM_P2
2023/02/23 00:00:30;;;;;;;6.80;3.40;;;;;;;-3.23;69.35;99314.09;105611;1258;73560;-26
2023/02/23 00:03:00;;;;;;;9.80;4.60;;;;;;;-3.43;69.33;99316.01;105492;1261;61379;-26
2023/02/23 00:05:31;;;;;;;5.10;2.90;;;;;;;-3.49;69.59;99312.20;105509;1262;61116;-27
2023/02/23 00:08:00;;;;;;;6.80;3.70;;;;;;;-3.69;69.37;99309.88;105533;1263;74568;-26
2023/02/23 00:10:30;;;;;;;6.10;3.70;;;;;;;-3.72;69.73;99314.69;105395;1263;76225;-26
2023/02/23 00:12:59;;;;;;;7.60;3.40;;;;;;;-3.83;70.19;99317.77;105554;1270;73156;-26
2023/02/23 00:15:30;;;;;;;5.70;4.20;;;;;;;-3.85;70.46;99313.08;105576;1257;61487;-26
2023/02/23 00:17:59;;;;;;;6.90;4.60;;;;;;;-3.62;69.64;99317.23;105590;1269;61837;-27
2023/02/23 00:20:28;;;;;;;7.50;4.30;;;;;;;-3.18;67.49;99323.48;105613;1260;74928;-26
2023/02/23 00:22:57;;;;;;;7.90;4.40;;;;;;;-3.36;67.35;99325.05;105249;1257;75192;-27
2023/02/23 00:25:25;;;;;;;7.10;4.00;;;;;;;-3.44;67.74;99328.41;105538;1261;74677;-26
2023/02/23 00:27:54;;;;;;;8.20;3.70;;;;;;;-3.43;67.86;99329.27;105426;1263;61165;-26
2023/02/23 00:30:23;;;;;;;5.50;2.80;;;;;;;-3.55;68.27;99333.71;105602;1257;61806;-27
2023/02/23 00:32:51;;;;;;;4.20;3.00;;;;;;;-3.60;68.38;99330.58;105550;1261;74752;-26
2023/02/23 00:35:20;;;;;;;5.00;3.40;;;;;;;-3.84;68.85;99329.84;105548;1262;76174;-26
2023/02/23 00:37:51;;;;;;;7.50;4.40;;;;;;;-3.99;69.11;99334.70;105552;1259;74266;-26
2023/02/23 00:40:22;;;;;;;6.70;4.30;;;;;;;-4.01;69.85;99337.27;105576;1262;62059;-26
2023/02/23 00:42:51;;;;;;;5.60;3.60;;;;;;;-4.03;70.02;99337.30;105638;1263;61921;-26
2023/02/23 00:45:20;;;;;;;5.80;3.20;;;;;;;-4.20;69.65;99338.08;105553;1261;74308;-27
2023/02/23 00:47:48;;;;;;;5.30;2.90;;;;;;;-4.34;69.18;99340.16;105432;1257;75686;-26
2023/02/23 00:50:17;;;;;;;4.50;2.80;;;;;;;-4.44;68.97;99339.83;105205;1263;74128;-27
2023/02/23 00:52:46;;;;;;;9.30;3.70;;;;;;;-4.55;68.53;99345.75;105294;1257;61942;-26
2023/02/23 00:55:15;;;;;;;6.80;3.50;;;;;;;-4.58;69.12;99347.14;105243;1268;61865;-26
2023/02/23 00:57:43;;;;;;;4.60;2.20;;;;;;;-4.53;69.87;99345.73;105382;1257;73395;-27
2023/02/23 01:00:19;;;;;;;5.00;3.00;;;;;;;-4.09;68.78;99349.94;105335;1263;76052;-26
2023/02/23 01:02:49;;;;;;;4.90;3.50;;;;;;;-3.59;66.39;99352.64;105634;1257;73146;-26
2023/02/23 01:05:19;;;;;;;5.10;3.00;;;;;;;-3.25;65.64;99353.17;105299;1262;61144;-25
2023/02/23 01:07:48;;;;;;;5.30;3.30;;;;;;;-3.13;65.55;99355.83;105163;1263;61172;-26
2023/02/23 01:10:19;;;;;;;5.50;3.60;;;;;;;-3.51;65.22;99355.89;105274;1258;74554;-26
2023/02/23 01:12:53;;;;;;;5.20;3.30;;;;;;;-3.93;66.20;99355.61;105503;1257;74809;-25
2023/02/23 01:15:23;;;;;;;5.50;3.70;;;;;;;-4.20;66.88;99355.71;105566;1261;74297;-25
2023/02/23 01:17:52;;;;;;;5.90;3.30;;;;;;;-4.26;67.74;99358.54;105608;1257;61726;-25
2023/02/23 01:20:21;;;;;;;6.70;4.20;;;;;;;-4.37;68.08;99363.10;105622;1264;61623;-25
2023/02/23 01:22:50;;;;;;;6.80;3.70;;;;;;;-4.62;67.93;99360.09;105600;1267;74392;-25
2023/02/23 01:25:19;;;;;;;7.10;3.10;;;;;;;-4.74;68.58;99357.70;105554;1257;75624;-25
2023/02/23 01:27:47;;;;;;;8.20;3.50;;;;;;;-4.81;68.01;99360.17;105616;1263;73169;-25
2023/02/23 01:30:15;;;;;;;7.80;3.50;;;;;;;-4.90;67.98;99363.69;105519;1267;61981;-25
2023/02/23 01:32:44;;;;;;;5.90;3.50;;;;;;;-5.04;67.30;99364.54;105318;1261;61064;-25
2023/02/23 01:35:12;;;;;;;7.10;4.20;;;;;;;-5.16;67.72;99363.84;105305;1266;74505;-25
2023/02/23 01:37:42;;;;;;;8.80;4.60;;;;;;;-5.21;68.05;99368.98;105315;1264;75185;-25
2023/02/23 01:40:27;;;;;;;6.80;4.40;;;;;;;-5.30;68.93;99370.61;105583;1261;74475;-25
2023/02/23 01:42:57;;;;;;;5.30;3.60;;;;;;;-5.41;69.19;99371.91;105599;1258;62242;-25
2023/02/23 01:45:36;;;;;;;4.30;2.80;;;;;;;-5.42;69.86;99375.99;105395;1263;61055;-26
2023/02/23 01:48:20;;;;;;;5.90;2.50;;;;;;;-4.83;68.77;99372.55;105316;1258;74129;-26
2023/02/23 01:50:52;;;;;;;4.10;1.90;;;;;;;-4.05;66.92;99371.08;105353;1263;73770;-25
2023/02/23 01:53:20;;;;;;;5.30;2.90;;;;;;;-4.02;65.97;99371.03;105437;1263;74082;-25
2023/02/23 01:55:50;;;;;;;7.40;4.20;;;;;;;-4.15;66.15;99369.54;105429;1263;61138;-25
2023/02/23 01:58:26;;;;;;;7.50;4.10;;;;;;;-4.38;66.85;99375.15;105096;1266;61822;-26
2023/02/23 02:00:56;;;;;;;8.30;4.60;;;;;;;-4.57;67.49;99378.98;105457;1258;74686;-26
2023/02/23 02:03:33;;;;;;;10.00;5.10;;;;;;;-4.73;68.05;99383.11;105245;1265;75900;-25
2023/02/23 02:06:03;;;;;;;11.70;5.70;;;;;;;-4.94;68.63;99386.27;105301;1262;73972;-25
2023/02/23 02:08:32;;;;;;;10.80;5.40;;;;;;;-5.14;69.31;99383.62;105110;1265;61162;-25
2023/02/23 02:11:24;;;;;;;7.90;4.70;;;;;;;-5.30;69.65;99388.20;105443;1263;61804;-25
2023/02/23 02:14:01;;;;;;;10.20;4.30;;;;;;;-5.47;69.66;99385.85;105604;1260;74787;-25
2023/02/23 02:16:41;;;;;;;8.40;4.00;;;;;;;-5.62;69.88;99387.02;105641;1263;74777;-25
2023/02/23 02:19:47;;;;;;;7.50;4.70;;;;;;;-5.74;69.91;99391.88;105540;1262;74263;-25
2023/02/23 02:23:08;;;;;;;8.10;4.20;;;;;;;-5.88;70.64;99391.66;105637;1260;61972;-25
2023/02/23 02:25:58;;;;;;;6.00;3.20;;;;;;;-6.01;71.22;99399.73;105154;1266;61880;-25
2023/02/23 02:28:39;;;;;;;6.50;3.90;;;;;;;-6.12;71.81;99401.35;105186;1261;74537;-25
2023/02/23 02:31:35;;;;;;;7.10;3.80;;;;;;;-6.22;71.65;99404.98;105474;1260;76122;-25
2023/02/23 02:35:36;;;;;;;9.60;4.20;;;;;;;-6.31;71.95;99403.20;102611;1293;600382;-26
2023/02/23 02:38:05;;;;;;;1.80;1.10;;;;;;;-6.34;72.01;99405.05;104798;1267;62594;-27
2023/02/23 02:40:37;;;;;;;3.50;2.40;;;;;;;-5.62;72.51;99412.39;104860;1267;61564;-25
2023/02/23 02:43:11;;;;;;;4.80;2.90;;;;;;;-4.63;70.91;99415.50;104803;1273;73782;-25
2023/02/23 02:45:49;;;;;;;8.90;4.80;;;;;;;-4.37;68.96;99417.66;104793;1271;75936;-25
2023/02/23 02:48:37;;;;;;;8.20;3.80;;;;;;;-4.50;68.72;99420.59;103227;1270;2090868;-26
2023/02/23 02:51:21;;;;;;;9.10;4.10;;;;;;;-4.80;68.85;99423.17;105195;1261;60956;-26
2023/02/23 02:54:19;;;;;;;9.80;4.30;;;;;;;-5.12;69.35;99422.20;105046;1267;61830;-25
2023/02/23 02:56:49;;;;;;;8.20;4.50;;;;;;;-5.39;70.52;99424.20;105121;1264;73777;-25
2023/02/23 04:18:05;;;;;;;9.80;6.10;;;;;;;-5.41;71.41;99489.70;105907;1263;61278;-25
2023/02/23 04:20:33;;;;;;;11.10;6.20;;;;;;;-5.67;71.73;99493.30;105668;1255;61720;-25
2023/02/23 04:23:02;;;;;;;13.30;5.30;;;;;;;-5.96;72.67;99495.22;105893;1254;73644;-25
2023/02/23 04:25:31;;;;;;;11.60;6.20;;;;;;;-6.21;72.83;99493.20;105759;1257;73858;-25
2023/02/23 04:28:00;;;;;;;11.00;5.60;;;;;;;-6.46;73.16;99494.01;105629;1257;74282;-25
2023/02/23 04:30:29;;;;;;;11.80;6.10;;;;;;;-6.65;73.44;99489.38;105678;1254;62020;-25
2023/02/23 04:32:58;;;;;;;9.60;4.90;;;;;;;-6.82;73.89;99490.95;105884;1256;62313;-25
2023/02/23 04:35:28;;;;;;;9.80;6.10;;;;;;;-6.97;74.58;99491.66;105858;1254;74957;-25
2023/02/23 04:38:00;;;;;;;12.10;5.20;;;;;;;-7.11;75.10;99496.77;105691;1254;76021;-25
2023/02/23 04:40:28;;;;;;;11.10;5.60;;;;;;;-7.27;75.83;99494.60;105820;1254;73522;-26
2023/02/23 04:42:57;;;;;;;6.90;3.30;;;;;;;-7.32;76.27;99495.46;105629;1254;63839;-25
2023/02/23 04:45:25;;;;;;;8.10;3.40;;;;;;;-6.60;76.93;99497.60;105828;1257;61773;-25
2023/02/23 04:47:54;;;;;;;8.80;5.10;;;;;;;-5.76;75.49;99501.82;105714;1252;73699;-25
2023/02/23 04:50:24;;;;;;;15.20;6.50;;;;;;;-5.59;73.93;99503.91;105577;1256;76023;-27
2023/02/23 04:52:52;;;;;;;11.20;7.50;;;;;;;-5.73;72.94;99506.55;105551;1254;74442;-27
2023/02/23 04:55:23;;;;;;;13.90;8.90;;;;;;;-5.96;73.45;99509.25;105700;1254;61176;-25
2023/02/23 04:57:56;;;;;;;15.60;8.80;;;;;;;-6.21;73.59;99507.23;105709;1254;61065;-25
2023/02/23 05:00:24;;;;;;;13.30;8.20;;;;;;;-6.45;74.10;99509.89;105817;1257;74822;-25
2023/02/23 05:02:53;;;;;;;13.10;7.40;;;;;;;-6.66;75.03;99511.66;105893;1254;76138;-25
2023/02/23 05:05:24;;;;;;;19.50;9.20;;;;;;;-6.80;75.39;99513.23;105877;1257;74274;-26
2023/02/23 05:07:54;;;;;;;30.10;14.80;;;;;;;-6.93;75.21;99515.13;105842;1254;62187;-25
2023/02/23 05:10:23;;;;;;;24.10;12.90;;;;;;;-7.06;76.03;99513.98;105865;1258;61805;-25
2023/02/23 05:12:54;;;;;;;37.00;17.70;;;;;;;-7.16;76.09;99514.17;105873;1254;74528;-25
2023/02/23 05:15:22;;;;;;;21.60;9.50;;;;;;;-7.27;76.92;99511.65;105748;1254;76000;-25
2023/02/23 05:17:50;;;;;;;10.60;5.30;;;;;;;-7.16;76.84;99518.55;105837;1254;74539;-25
2023/02/23 05:20:22;;;;;;;26.20;11.50;;;;;;;-6.19;75.97;99530.01;105707;1257;61416;-25
2023/02/23 05:22:50;;;;;;;19.60;8.90;;;;;;;-5.41;74.27;99527.61;105877;1254;61795;-25
2023/02/23 05:25:19;;;;;;;16.10;8.40;;;;;;;-5.25;72.44;99533.89;105591;1254;73144;-25
2023/02/23 05:27:52;;;;;;;12.90;7.20;;;;;;;-5.34;71.79;99533.13;105542;1259;76227;-25
2023/02/23 05:30:21;;;;;;;14.40;7.50;;;;;;;-5.47;72.13;99532.39;105674;1254;74463;-25
2023/02/23 05:32:50;;;;;;;15.90;7.70;;;;;;;-5.59;72.21;99533.00;105855;1254;61150;-25
2023/02/23 05:35:19;;;;;;;14.60;7.50;;;;;;;-5.71;71.91;99537.48;105677;1256;61628;-25
2023/02/23 05:37:47;;;;;;;16.00;8.30;;;;;;;-5.83;71.98;99539.61;105779;1254;74539;-25
2023/02/23 05:40:15;;;;;;;18.00;9.10;;;;;;;-5.91;72.65;99542.86;105613;1258;75780;-25
2023/02/23 05:42:45;;;;;;;18.10;9.90;;;;;;;-5.96;72.37;99544.59;105796;1256;74474;-26
2023/02/23 05:45:13;;;;;;;14.90;9.10;;;;;;;-6.03;72.29;99549.05;105849;1253;61853;-25
2023/02/23 05:47:42;;;;;;;11.30;6.70;;;;;;;-6.06;72.34;99547.20;105756;1257;61883;-25
2023/02/23 05:50:10;;;;;;;18.50;9.80;;;;;;;-6.07;72.08;99549.75;105862;1254;74961;-25
2023/02/23 05:52:40;;;;;;;19.30;10.70;;;;;;;-6.13;72.89;99551.13;105588;1254;74906;-25
2023/02/23 05:55:10;;;;;;;15.70;7.10;;;;;;;-6.16;73.53;99553.01;105667;1260;73971;-26
2023/02/23 05:57:40;;;;;;;14.20;8.10;;;;;;;-6.19;74.06;99560.80;105648;1259;61290;-26
2023/02/23 06:00:09;;;;;;;20.90;10.40;;;;;;;-6.21;73.99;99561.83;105878;1257;61039;-25
2023/02/23 06:02:40;;;;;;;15.90;7.00;;;;;;;-6.20;74.01;99568.08;105518;1254;74548;-26
2023/02/23 06:05:10;;;;;;;13.70;6.90;;;;;;;-5.56;73.27;99573.91;105864;1253;77023;-26
2023/02/23 06:07:38;;;;;;;49.10;25.20;;;;;;;-4.71;71.07;99578.27;105708;1253;74926;-26
2023/02/23 06:10:07;;;;;;;24.50;11.80;;;;;;;-4.73;69.29;99579.80;105688;1261;61177;-26
2023/02/23 06:12:36;;;;;;;19.50;10.00;;;;;;;-4.52;69.02;99584.67;105755;1254;61061;-26
2023/02/23 06:15:05;;;;;;;17.80;8.40;;;;;;;-4.74;68.12;99582.18;105845;1254;74735;-26
2023/02/23 06:17:34;;;;;;;13.40;6.90;;;;;;;-4.85;69.00;99588.40;105714;1254;76007;-26
2023/02/23 06:20:06;;;;;;;11.00;6.00;;;;;;;-4.81;69.90;99583.61;105747;1261;73318;-26
2023/02/23 06:22:35;;;;;;;12.90;5.40;;;;;;;-4.86;68.57;99588.73;105685;1253;62251;-26
2023/02/23 06:25:07;;;;;;;9.30;4.50;;;;;;;-4.98;68.56;99588.35;105771;1257;61993;-26
2023/02/23 06:27:35;;;;;;;8.30;4.30;;;;;;;-5.00;69.15;99590.06;105656;1259;74246;-26
2023/02/23 06:30:05;;;;;;;7.40;4.40;;;;;;;-5.01;69.68;99588.38;105851;1257;76164;-26
2023/02/23 06:32:33;;;;;;;10.20;5.20;;;;;;;-5.08;69.95;99589.79;105642;1254;73445;-26
2023/02/23 06:35:04;;;;;;;6.20;4.50;;;;;;;-5.04;70.20;99592.47;105737;1254;61565;-27
2023/02/23 06:37:34;;;;;;;7.60;3.50;;;;;;;-5.01;70.01;99596.67;105509;1260;61682;-26
2023/02/23 06:40:03;;;;;;;8.90;4.60;;;;;;;-4.96;70.26;99597.82;105527;1254;74334;-25
2023/02/23 06:42:33;;;;;;;8.60;4.10;;;;;;;-4.85;70.76;99600.42;105540;1253;74972;-25
2023/02/23 06:45:03;;;;;;;6.60;3.30;;;;;;;-4.72;70.84;99600.64;105738;1254;74411;-26
2023/02/23 06:47:33;;;;;;;3.50;2.20;;;;;;;-4.67;70.50;99596.02;105513;1254;61224;-26
2023/02/23 06:50:09;;;;;;;5.10;3.50;;;;;;;-4.61;69.70;99594.77;105595;1260;61665;-26
2023/02/23 06:52:38;;;;;;;4.10;2.40;;;;;;;-4.55;69.59;99598.59;105500;1255;73613;-25
2023/02/23 06:55:07;;;;;;;4.20;2.60;;;;;;;-4.50;69.12;99596.52;105728;1259;75838;-26
2023/02/23 06:57:36;;;;;;;7.20;4.30;;;;;;;-4.46;69.11;99599.52;105722;1254;73538;-26
2023/02/23 07:07:44;;;;;;;5.00;3.30;;;;;;;-4.11;68.77;99602.16;102695;1292;600219;-26
2023/02/23 07:10:13;;;;;;;10.00;5.10;;;;;;;-3.99;69.10;99605.23;105095;1267;61404;-26
2023/02/23 07:12:41;;;;;;;7.90;4.10;;;;;;;-3.81;69.04;99606.70;104811;1270;62204;-26
2023/02/23 07:15:10;;;;;;;8.30;4.50;;;;;;;-3.64;67.83;99605.79;104875;1271;73724;-26
2023/02/23 07:17:39;;;;;;;6.20;3.80;;;;;;;-3.53;67.47;99612.23;105120;1263;76081;-27
2023/02/23 07:20:12;;;;;;;6.90;4.10;;;;;;;-3.39;67.27;99609.67;104239;1253;2057779;-27
2023/02/23 07:22:41;;;;;;;7.10;4.30;;;;;;;-3.24;66.50;99610.11;105716;1251;61099;-26
2023/02/23 07:25:09;;;;;;;5.70;2.70;;;;;;;-3.07;65.96;99610.34;105603;1252;61051;-27
2023/02/23 07:27:41;;;;;;;6.70;3.20;;;;;;;-2.88;64.15;99606.30;105898;1255;73043;-26
2023/02/23 07:30:12;;;;;;;6.60;4.00;;;;;;;-2.67;63.58;99606.61;105634;1253;75623;-27
2023/02/23 07:32:41;;;;;;;7.40;4.00;;;;;;;-2.55;62.16;99608.77;105859;1252;74160;-27
2023/02/23 07:35:10;;;;;;;10.20;6.50;;;;;;;-2.41;62.02;99610.20;105742;1251;61385;-26
2023/02/23 07:37:44;;;;;;;8.80;5.40;;;;;;;-2.37;61.61;99611.66;105885;1256;61842;-27
2023/02/23 07:40:13;;;;;;;8.40;5.40;;;;;;;-2.16;61.99;99607.33;105805;1251;74600;-26
2023/02/23 07:42:41;;;;;;;7.30;4.00;;;;;;;-1.77;61.68;99611.29;105778;1258;75368;-24
2023/02/23 07:45:10;;;;;;;6.40;3.90;;;;;;;-1.47;61.13;99616.08;105897;1252;73951;-24
2023/02/23 07:47:39;;;;;;;6.00;3.40;;;;;;;-1.21;59.23;99610.36;105930;1252;61162;-24
2023/02/23 07:57:49;;;;;;;4.30;2.60;;;;;;;-0.53;55.42;99611.38;102667;1294;600854;-26
2023/02/23 08:00:18;;;;;;;3.80;2.90;;;;;;;-0.46;54.79;99615.29;104889;1267;61075;-26
2023/02/23 08:02:46;;;;;;;6.90;3.30;;;;;;;-0.31;55.07;99611.13;104879;1273;61928;-24
2023/02/23 08:05:16;;;;;;;4.00;2.00;;;;;;;-0.26;54.38;99607.75;104893;1279;74250;-26
2023/02/23 08:07:44;;;;;;;4.30;3.10;;;;;;;-0.18;54.79;99608.56;105233;1270;75573;-27
2023/02/23 08:10:13;;;;;;;5.40;3.40;;;;;;;-0.10;54.05;99613.48;105259;1267;73323;-26
2023/02/23 08:12:43;;;;;;;4.80;2.80;;;;;;;-0.09;53.15;99618.20;103767;1264;61106;-25
2023/02/23 08:15:13;;;;;;;3.20;2.40;;;;;;;-0.04;54.30;99615.52;105109;1264;61812;-25
2023/02/23 08:17:47;;;;;;;4.90;2.50;;;;;;;0.03;53.58;99618.40;105119;1266;73023;-25
2023/02/23 08:20:16;;;;;;;2.80;1.80;;;;;;;0.04;53.28;99621.23;105258;1261;76160;-25
2023/02/23 08:22:44;;;;;;;4.80;1.80;;;;;;;0.08;53.50;99621.80;105073;1261;74238;-25
2023/02/23 08:25:17;;;;;;;3.40;1.90;;;;;;;0.12;54.18;99621.88;105203;1267;60987;-25
2023/02/23 08:27:50;;;;;;;3.20;2.10;;;;;;;-0.01;53.64;99620.89;105193;1266;61621;-25
2023/02/23 08:30:20;;;;;;;3.70;2.00;;;;;;;-0.17;53.01;99620.46;105280;1264;74775;-25
2023/02/23 08:32:49;;;;;;;4.50;2.50;;;;;;;-0.09;53.03;99620.94;105100;1260;74839;-25
2023/02/23 08:35:19;;;;;;;3.50;2.30;;;;;;;0.07;53.28;99626.09;105198;1261;74661;-25
2023/02/23 08:37:47;;;;;;;5.80;2.60;;;;;;;0.26;53.65;99625.23;105193;1260;61090;-25
2023/02/23 08:40:19;;;;;;;2.70;1.80;;;;;;;0.48;54.31;99622.00;105258;1260;61864;-25
2023/02/23 08:42:51;;;;;;;4.70;2.70;;;;;;;0.66;52.57;99624.02;105234;1267;74527;-25
2023/02/23 08:45:20;;;;;;;3.20;2.10;;;;;;;0.82;51.63;99622.33;105263;1270;75604;-25
2023/02/23 08:47:48;;;;;;;3.70;2.60;;;;;;;1.02;51.84;99619.28;105247;1266;74055;-25
2023/02/23 08:50:18;;;;;;;2.60;1.90;;;;;;;1.18;51.96;99619.61;105248;1261;61333;-24
2023/02/23 08:52:46;;;;;;;5.10;2.50;;;;;;;1.24;52.12;99625.40;105279;1261;62131;-25
2023/02/23 08:55:20;;;;;;;3.90;2.20;;;;;;;1.40;51.56;99621.42;105166;1266;74529;-25
2023/02/23 08:57:49;;;;;;;3.50;1.80;;;;;;;1.48;51.08;99620.30;105066;1270;74868;-25
2023/02/23 09:00:18;;;;;;;4.00;2.10;;;;;;;1.52;50.28;99624.28;105039;1260;73239;-25
2023/02/23 09:02:48;;;;;;;2.60;2.10;;;;;;;1.70;49.48;99624.67;105073;1261;61188;-24
2023/02/23 09:05:17;;;;;;;5.00;1.80;;;;;;;1.85;49.20;99625.85;105151;1260;61051;-25
2023/02/23 09:07:46;;;;;;;4.80;2.20;;;;;;;1.78;48.60;99621.48;105129;1261;74515;-25
2023/02/23 09:10:18;;;;;;;2.70;1.90;;;;;;;1.74;50.04;99620.97;105253;1265;76010;-24
2023/02/23 09:12:50;;;;;;;3.30;1.90;;;;;;;1.91;50.92;99626.64;105104;1266;74644;-25
2023/02/23 09:15:18;;;;;;;6.40;2.70;;;;;;;2.30;49.18;99627.80;105088;1261;61192;-24
2023/02/23 09:17:47;;;;;;;2.60;1.90;;;;;;;2.57;49.94;99628.99;105301;1266;61879;-25
2023/02/23 09:20:16;;;;;;;4.40;2.10;;;;;;;2.70;50.14;99631.60;105304;1265;74775;-24
2023/02/23 09:22:48;;;;;;;3.70;1.80;;;;;;;2.42;49.33;99629.07;105148;1261;75008;-25
2023/02/23 09:25:18;;;;;;;3.40;2.20;;;;;;;1.61;49.22;99631.65;105797;1257;74177;-25
2023/02/23 09:27:51;;;;;;;8.40;2.90;;;;;;;1.42;50.77;99628.39;105700;1260;61196;-25
2023/02/23 09:30:19;;;;;;;5.30;3.30;;;;;;;1.53;50.84;99630.90;105284;1254;61122;-25
2023/02/23 09:32:52;;;;;;;5.50;2.40;;;;;;;1.51;50.78;99629.42;105596;1254;74529;-25
2023/02/23 09:35:21;;;;;;;9.10;4.40;;;;;;;1.16;51.07;99625.81;105546;1254;75977;-25
2023/02/23 09:37:53;;;;;;;5.00;2.40;;;;;;;1.31;52.71;99625.50;105688;1260;74535;-25
2023/02/23 09:40:44;;;;;;;3.70;2.30;;;;;;;1.83;51.35;99626.97;105635;1259;61183;-25
2023/02/23 09:43:32;;;;;;;5.40;2.70;;;;;;;2.30;49.95;99625.39;105808;1258;61792;-25
2023/02/23 09:46:38;;;;;;;3.60;2.10;;;;;;;2.54;50.54;99626.91;105482;1260;74476;-25
2023/02/23 09:49:12;;;;;;;4.70;2.50;;;;;;;2.59;49.02;99623.77;105663;1261;75866;-25
2023/02/23 09:51:44;;;;;;;3.00;2.50;;;;;;;2.66;47.95;99625.40;105599;1255;74321;-26
2023/02/23 09:54:12;;;;;;;5.30;3.00;;;;;;;2.76;47.15;99625.17;105483;1254;61231;-24
2023/02/23 09:56:46;;;;;;;3.90;2.70;;;;;;;2.82;48.40;99627.19;105765;1253;61558;-25
2023/02/23 09:59:15;;;;;;;;;;;;;;;3.16;49.13;99620.79;105553;1259;73587;-25
2023/02/23 10:01:47;;;;;;;3.40;2.50;;;;;;;3.23;46.39;99621.75;105708;1259;74419;-25
2023/02/23 10:04:31;;;;;;;3.00;2.20;;;;;;;3.30;46.58;99615.60;105853;1254;73040;-25
2023/02/23 10:07:17;;;;;;;4.80;2.30;;;;;;;3.27;45.43;99614.87;105568;1254;61378;-24
2023/02/23 10:09:49;;;;;;;1.70;1.00;;;;;;;3.37;46.15;99610.50;105547;1253;61076;-25
2023/02/23 10:12:39;;;;;;;3.20;2.00;;;;;;;2.96;45.48;99603.92;105725;1254;74278;-25
2023/02/23 10:15:14;;;;;;;2.70;2.10;;;;;;;2.29;47.28;99601.48;105845;1256;76357;-25
2023/02/23 10:17:53;;;;;;;4.30;2.50;;;;;;;2.38;48.29;99597.02;105865;1254;74560;-26
2023/02/23 10:20:26;;;;;;;4.70;3.00;;;;;;;2.64;46.90;99597.18;105481;1254;61164;-26
2023/02/23 10:22:57;;;;;;;;;;;;;;;2.76;46.62;99593.27;105532;1260;62089;-26
2023/02/23 10:25:27;;;;;;;2.20;1.40;;;;;;;2.82;45.56;99596.48;105582;1260;73612;-26
2023/02/23 10:27:57;;;;;;;3.50;1.90;;;;;;;3.06;45.48;99594.29;105232;1254;75336;-25
2023/02/23 10:30:31;;;;;;;3.80;2.50;;;;;;;3.18;46.30;99597.55;105653;1254;75212;-26
2023/02/23 10:33:22;;;;;;;4.00;2.70;;;;;;;3.23;46.31;99592.21;105467;1254;61759;-25
2023/02/23 10:35:54;;;;;;;3.90;2.60;;;;;;;3.48;46.25;99586.52;105878;1257;61790;-25
2023/02/23 10:38:40;;;;;;;2.10;1.50;;;;;;;3.83;45.21;99582.77;105681;1253;74545;-25
2023/02/23 10:41:09;;;;;;;3.70;2.80;;;;;;;3.93;44.97;99575.60;105879;1254;75890;-25
2023/02/23 10:43:38;;;;;;;3.70;1.70;;;;;;;4.04;45.36;99578.91;105841;1254;74251;-25
2023/02/23 10:46:06;;;;;;;4.70;2.80;;;;;;;4.10;45.23;99572.27;105582;1259;61243;-25
2023/02/23 10:48:41;;;;;;;4.20;2.30;;;;;;;3.87;44.19;99571.04;105693;1260;61780;-25
2023/02/23 10:51:40;;;;;;;2.40;1.70;;;;;;;3.78;44.30;99567.17;105682;1254;74673;-25
2023/02/23 10:54:35;;;;;;;5.80;2.80;;;;;;;3.88;43.59;99566.73;105708;1254;75524;-25
2023/02/23 10:57:05;;;;;;;3.40;1.80;;;;;;;4.29;44.15;99560.40;105714;1253;74222;-25
2023/02/23 10:59:34;;;;;;;2.60;2.10;;;;;;;4.30;44.19;99555.14;105711;1254;61164;-27
2023/02/23 11:02:22;;;;;;;2.70;2.30;;;;;;;4.13;44.18;99555.45;105937;1255;62165;-25
2023/02/23 11:04:55;;;;;;;3.10;2.20;;;;;;;4.08;44.05;99552.42;105678;1254;74634;-25
2023/02/23 11:07:28;;;;;;;4.40;2.10;;;;;;;3.92;43.26;99551.59;105681;1255;75893;-25
2023/02/23 11:09:58;;;;;;;3.30;2.20;;;;;;;3.71;43.21;99552.38;105808;1254;74552;-25
2023/02/23 11:12:38;;;;;;;2.70;2.00;;;;;;;3.78;43.37;99555.00;105641;1254;61074;-25
2023/02/23 11:15:32;;;;;;;3.60;2.40;;;;;;;4.23;44.57;99552.23;105604;1253;61162;-25
2023/02/23 11:18:26;;;;;;;2.70;1.60;;;;;;;4.70;43.89;99544.86;105744;1254;73327;-25
2023/02/23 11:20:55;;;;;;;3.10;1.70;;;;;;;4.45;43.14;99539.14;105817;1254;75876;-25
2023/02/23 11:23:28;;;;;;;2.70;1.80;;;;;;;4.11;43.19;99532.33;105735;1253;72743;-25
2023/02/23 11:26:16;;;;;;;3.60;2.10;;;;;;;3.78;44.60;99542.42;105778;1257;61916;-25
2023/02/23 11:28:45;;;;;;;3.70;1.60;;;;;;;3.79;44.09;99544.45;105848;1254;62068;-26
2023/02/23 11:31:19;;;;;;;3.70;2.10;;;;;;;3.90;42.59;99542.73;105861;1254;74562;-25
2023/02/23 11:33:48;;;;;;;2.90;1.80;;;;;;;4.20;42.82;99534.52;105807;1254;76021;-25
2023/02/23 11:36:27;;;;;;;3.40;2.00;;;;;;;3.95;43.82;99533.06;105635;1254;74224;-25
2023/02/23 11:39:20;;;;;;;4.10;2.30;;;;;;;3.81;43.44;99534.05;105714;1254;61050;-25
2023/02/23 11:42:08;;;;;;;4.30;2.50;;;;;;;3.95;44.16;99524.99;105732;1260;61817;-25
2023/02/23 11:44:38;;;;;;;3.20;2.30;;;;;;;3.78;44.33;99522.88;105878;1254;74913;-25
2023/02/23 11:47:14;;;;;;;8.70;4.50;;;;;;;3.69;44.90;99524.82;105906;1257;75377;-25
2023/02/23 11:49:43;;;;;;;5.80;2.70;;;;;;;3.85;44.02;99521.02;105664;1254;74174;-26
2023/02/23 11:52:21;;;;;;;5.20;2.60;;;;;;;3.77;45.15;99523.43;105421;1253;61102;-25
2023/02/23 11:54:56;;;;;;;3.50;2.20;;;;;;;3.67;43.27;99526.42;105691;1255;61832;-25
2023/02/23 11:57:49;;;;;;;3.00;1.90;;;;;;;3.59;44.27;99524.08;105557;1254;73062;-25
2023/02/23 12:00:30;;;;;;;3.10;1.90;;;;;;;3.67;42.85;99525.77;105462;1259;76074;-25
2023/02/23 12:03:07;;;;;;;2.50;1.90;;;;;;;3.69;43.67;99522.09;105369;1254;74329;-25
2023/02/23 12:05:42;;;;;;;3.40;1.80;;;;;;;3.51;42.27;99523.22;105606;1253;61065;-25
2023/02/23 12:08:58;;;;;;;2.80;1.60;;;;;;;3.03;42.06;99517.71;105637;1254;62771;-25
2023/02/23 12:11:30;;;;;;;3.40;1.70;;;;;;;2.69;44.52;99511.93;105801;1257;74298;-25
2023/02/23 12:14:29;;;;;;;2.50;1.70;;;;;;;2.81;43.67;99512.97;105709;1254;75516;-25
2023/02/23 12:17:20;;;;;;;2.20;1.20;;;;;;;2.43;43.34;99506.81;105810;1254;74026;-25
2023/02/23 12:20:46;;;;;;;2.90;1.40;;;;;;;2.35;44.73;99500.98;105598;1254;61276;-25
2023/02/23 12:23:20;;;;;;;2.20;1.70;;;;;;;2.29;45.85;99506.20;105418;1260;61631;-25
2023/02/23 12:26:25;;;;;;;2.60;1.70;;;;;;;2.33;47.24;99491.14;105495;1254;75371;-25
2023/02/23 12:29:19;;;;;;;1.60;1.20;;;;;;;2.35;47.27;99495.35;105407;1254;72316;-25
2023/02/23 12:31:51;;;;;;;;;;;;;;;2.34;46.02;99488.87;105548;1254;71900;-25
2023/02/23 12:34:38;;;;;;;2.40;1.80;;;;;;;2.20;47.08;99486.67;105540;1254;61022;-25
2023/02/23 12:37:26;;;;;;;4.40;2.00;;;;;;;2.05;47.62;99488.45;105308;1254;61256;-25
2023/02/23 12:40:03;;;;;;;3.40;2.50;;;;;;;2.13;48.03;99481.48;105533;1254;75234;-25
2023/02/23 12:42:44;;;;;;;1.80;1.30;;;;;;;2.15;47.62;99483.13;105522;1254;74593;-25
2023/02/23 12:45:53;;;;;;;3.30;2.10;;;;;;;2.16;48.60;99485.27;105542;1254;74186;-25
2023/02/23 12:49:00;;;;;;;3.00;2.30;;;;;;;2.35;48.02;99479.39;105803;1253;61119;-25
2023/02/23 12:51:38;;;;;;;3.00;1.50;;;;;;;2.21;48.19;99480.14;105762;1254;61312;-25
2023/02/23 12:54:11;;;;;;;1.90;1.20;;;;;;;2.06;48.23;99482.09;105601;1255;73227;-25
2023/02/23 12:57:01;;;;;;;3.00;1.80;;;;;;;1.83;48.23;99477.63;105507;1254;75595;-25
2023/02/23 12:59:44;;;;;;;2.80;2.00;;;;;;;1.52;48.80;99477.45;105479;1259;74493;-25
2023/02/23 13:02:57;;;;;;;4.30;1.70;;;;;;;1.63;49.30;99472.92;105545;1254;61208;-25
2023/02/23 13:05:55;;;;;;;2.40;1.70;;;;;;;1.62;50.12;99477.93;105261;1254;62616;-25
2023/02/23 13:09:02;;;;;;;2.00;1.50;;;;;;;1.38;49.45;99469.07;105568;1254;75094;-25
2023/02/23 13:11:47;;;;;;;1.70;1.20;;;;;;;1.17;50.67;99463.83;105853;1257;74131;-25
2023/02/23 13:14:20;;;;;;;4.40;2.30;;;;;;;1.27;50.43;99460.58;105786;1254;74329;-25
2023/02/23 13:17:11;;;;;;;3.50;1.70;;;;;;;1.39;51.20;99453.79;105609;1254;61160;-25
2023/02/23 13:20:03;;;;;;;2.80;1.50;;;;;;;1.39;50.93;99451.08;105539;1254;61875;-25
2023/02/23 13:22:45;;;;;;;3.50;2.10;;;;;;;1.24;50.95;99446.63;105605;1254;75613;-25
2023/02/23 13:25:35;;;;;;;4.90;1.90;;;;;;;1.01;51.36;99447.44;105618;1254;75729;-25
2023/02/23 13:28:17;;;;;;;3.90;2.00;;;;;;;0.88;51.26;99449.79;105809;1254;73933;-25
2023/02/23 13:30:49;;;;;;;3.20;1.80;;;;;;;0.66;52.39;99451.07;105647;1254;61061;-25
2023/02/23 13:33:33;;;;;;;3.40;1.70;;;;;;;0.54;52.90;99452.48;105701;1259;61147;-25
2023/02/23 13:36:20;;;;;;;4.00;1.80;;;;;;;0.52;53.96;99449.32;105691;1257;74524;-25